createdAt,value
2023-01-13T00:02:09.119Z,6.80
2023-01-13T00:05:10.574Z,6.18
2023-01-13T00:08:11.962Z,6.65
2023-01-13T00:11:13.363Z,6.13
2023-01-13T00:14:14.757Z,5.88
2023-01-13T00:17:16.257Z,6.35
2023-01-13T00:20:17.667Z,6.82
2023-01-13T00:23:19.057Z,6.30
2023-01-13T00:26:20.466Z,5.93
2023-01-13T00:29:21.838Z,5.93
2023-01-13T00:32:23.235Z,5.78
2023-01-13T00:35:24.642Z,6.22
2023-01-13T00:38:26.053Z,6.28
2023-01-13T00:41:27.473Z,5.63
2023-01-13T00:44:28.848Z,6.25
2023-01-13T00:47:30.249Z,6.28
2023-01-13T00:50:31.626Z,5.72
2023-01-13T00:53:33.023Z,5.85
2023-01-13T00:56:40.278Z,5.80
2023-01-13T00:59:42.321Z,5.72
2023-01-13T01:02:43.720Z,6.13
2023-01-13T01:05:45.122Z,5.80
2023-01-13T01:08:46.510Z,5.85
2023-01-13T01:11:47.913Z,5.93
2023-01-13T01:14:49.290Z,5.85
2023-01-13T01:17:50.706Z,5.60
2023-01-13T01:20:52.112Z,6.25
2023-01-13T01:23:53.506Z,5.47
2023-01-13T01:26:54.939Z,6.00
2023-01-13T01:29:56.337Z,5.05
2023-01-13T01:32:57.759Z,4.75
2023-01-13T01:35:59.150Z,6.13
2023-01-13T01:39:00.607Z,5.30
2023-01-13T01:42:02.000Z,5.80
2023-01-13T01:45:03.413Z,5.40
2023-01-13T01:48:04.829Z,5.50
2023-01-13T01:51:06.226Z,5.50
2023-01-13T01:54:07.629Z,5.25
2023-01-13T01:57:09.047Z,5.23
2023-01-13T02:00:10.486Z,5.53
2023-01-13T02:03:11.867Z,5.30
2023-01-13T02:06:13.253Z,5.50
2023-01-13T02:09:14.633Z,6.47
2023-01-13T02:12:16.031Z,5.53
2023-01-13T02:15:17.429Z,5.05
2023-01-13T02:18:18.834Z,5.13
2023-01-13T02:21:20.223Z,5.55
2023-01-13T02:24:21.609Z,5.07
2023-01-13T02:27:23.004Z,5.27
2023-01-13T02:30:24.497Z,4.68
2023-01-13T02:33:25.915Z,5.78
2023-01-13T02:36:27.303Z,5.25
2023-01-13T02:39:28.828Z,4.95
2023-01-13T02:42:30.222Z,4.80
2023-01-13T02:45:31.656Z,4.78
2023-01-13T02:48:33.088Z,5.65
2023-01-13T02:51:34.491Z,5.28
2023-01-13T02:54:35.876Z,4.72
2023-01-13T02:57:37.255Z,4.43
2023-01-13T03:00:38.673Z,4.82
2023-01-13T03:03:39.975Z,4.47
2023-01-13T03:06:41.381Z,4.85
2023-01-13T03:09:42.680Z,4.60
2023-01-13T03:12:43.982Z,4.70
2023-01-13T03:15:45.265Z,4.93
2023-01-13T03:18:46.591Z,5.50
2023-01-13T03:21:47.917Z,4.80
2023-01-13T03:24:49.221Z,4.60
2023-01-13T03:27:50.546Z,5.00
2023-01-13T03:30:51.889Z,4.75
2023-01-13T03:33:53.230Z,4.65
2023-01-13T03:36:54.537Z,4.75
2023-01-13T03:39:55.836Z,4.68
2023-01-13T03:42:57.135Z,4.33
2023-01-13T03:45:58.491Z,4.85
2023-01-13T03:48:59.826Z,5.10
2023-01-13T03:52:01.126Z,4.85
2023-01-13T03:55:02.431Z,4.70
2023-01-13T03:58:03.852Z,4.83
2023-01-13T04:01:05.258Z,4.68
2023-01-13T04:04:06.686Z,4.95
2023-01-13T04:07:08.029Z,5.10
2023-01-13T04:10:09.338Z,5.28
2023-01-13T04:13:10.657Z,4.67
2023-01-13T04:16:12.030Z,4.88
2023-01-13T04:19:13.387Z,4.72
2023-01-13T04:22:14.674Z,4.80
2023-01-13T04:25:15.982Z,4.43
2023-01-13T04:28:17.285Z,4.23
2023-01-13T04:31:18.667Z,4.70
2023-01-13T04:34:20.004Z,4.38
2023-01-13T04:37:21.325Z,4.43
2023-01-13T04:40:22.647Z,4.95
2023-01-13T04:43:23.963Z,4.77
2023-01-13T04:46:25.265Z,4.50
2023-01-13T04:49:26.623Z,4.35
2023-01-13T04:52:28.012Z,4.00
2023-01-13T04:55:29.320Z,4.60
2023-01-13T04:58:30.632Z,4.90
2023-01-13T05:01:32.046Z,4.65
2023-01-13T05:04:33.448Z,4.60
2023-01-13T05:07:34.752Z,4.28
2023-01-13T05:10:36.044Z,4.47
2023-01-13T05:13:38.200Z,4.20
2023-01-13T05:16:39.488Z,3.92
2023-01-13T05:19:40.792Z,3.90
2023-01-13T05:22:42.101Z,4.40
2023-01-13T05:25:44.406Z,4.88
2023-01-13T05:28:46.005Z,4.13
2023-01-13T05:31:47.301Z,3.90
2023-01-13T05:34:48.801Z,3.92
2023-01-13T05:37:50.098Z,4.30
2023-01-13T05:40:51.409Z,4.57
2023-01-13T05:43:52.705Z,3.63
2023-01-13T05:46:54.052Z,3.85
2023-01-13T05:49:55.363Z,4.05
2023-01-13T05:52:56.648Z,4.18
2023-01-13T05:55:57.955Z,4.03
2023-01-13T05:58:59.228Z,3.93
2023-01-13T06:02:00.578Z,4.18
2023-01-13T06:05:01.941Z,4.00
2023-01-13T06:08:03.269Z,3.60
2023-01-13T06:11:04.621Z,4.00
2023-01-13T06:14:05.937Z,4.33
2023-01-13T06:17:07.238Z,4.43
2023-01-13T06:20:08.538Z,4.30
2023-01-13T06:23:09.863Z,4.53
2023-01-13T06:26:11.171Z,4.13
2023-01-13T06:29:12.498Z,4.03
2023-01-13T06:32:13.853Z,4.00
2023-01-13T06:35:15.177Z,4.68
2023-01-13T06:38:16.487Z,4.60
2023-01-13T06:41:17.903Z,4.55
2023-01-13T06:44:19.257Z,4.77
2023-01-13T06:47:20.564Z,4.60
2023-01-13T06:50:21.907Z,4.25
2023-01-13T06:53:23.284Z,6.20
2023-01-13T06:56:24.594Z,5.75
2023-01-13T06:59:25.921Z,5.73
2023-01-13T07:02:27.285Z,7.70
2023-01-13T07:05:28.618Z,6.78
2023-01-13T07:08:29.915Z,6.90
2023-01-13T07:11:31.356Z,6.38
2023-01-13T07:14:32.656Z,6.00
2023-01-13T07:17:33.955Z,5.70
2023-01-13T07:20:35.251Z,5.85
2023-01-13T07:23:36.637Z,6.22
2023-01-13T07:26:37.950Z,4.78
2023-01-13T07:29:39.257Z,5.87
2023-01-13T07:32:40.557Z,6.32
2023-01-13T07:35:41.961Z,6.10
2023-01-13T07:38:43.270Z,5.00
2023-01-13T07:41:44.622Z,5.78
2023-01-13T07:44:45.930Z,4.47
2023-01-13T07:47:47.253Z,5.97
2023-01-13T07:50:48.586Z,5.57
2023-01-13T07:53:49.913Z,5.93
2023-01-13T07:56:51.396Z,5.57
2023-01-13T07:59:52.676Z,5.10
2023-01-13T08:02:54.080Z,5.43
2023-01-13T08:05:55.410Z,5.30
2023-01-13T08:08:56.921Z,6.03
2023-01-13T08:11:58.291Z,6.68
2023-01-13T08:14:59.630Z,5.43
2023-01-13T08:18:00.949Z,6.55
2023-01-13T08:21:02.266Z,11.65
2023-01-13T08:24:03.567Z,10.98
2023-01-13T08:27:04.906Z,10.68
2023-01-13T08:30:06.304Z,8.87
2023-01-13T08:33:07.628Z,9.75
2023-01-13T08:36:08.934Z,9.85
2023-01-13T08:39:10.264Z,6.72
2023-01-13T08:42:11.606Z,6.60
2023-01-13T08:45:12.919Z,8.00
2023-01-13T08:48:14.343Z,7.40
2023-01-13T08:51:15.638Z,6.05
2023-01-13T08:54:16.953Z,6.18
2023-01-13T08:57:18.277Z,11.02
2023-01-13T09:00:19.576Z,9.37
2023-01-13T09:03:20.903Z,10.05
2023-01-13T09:06:22.216Z,8.20
2023-01-13T09:09:23.571Z,8.95
2023-01-13T09:12:24.881Z,8.60
2023-01-13T09:15:26.281Z,6.70
2023-01-13T09:18:27.665Z,6.82
2023-01-13T09:21:28.971Z,6.40
2023-01-13T09:24:30.273Z,5.45
2023-01-13T09:27:31.581Z,6.45
2023-01-13T09:30:32.929Z,5.73
2023-01-13T09:33:34.307Z,5.93
2023-01-13T09:36:35.635Z,6.35
2023-01-13T09:39:36.946Z,6.18
2023-01-13T09:42:38.485Z,5.95
2023-01-13T09:45:39.778Z,5.83
2023-01-13T09:48:41.117Z,5.28
2023-01-13T09:51:42.495Z,6.10
2023-01-13T09:54:43.843Z,5.90
2023-01-13T09:57:45.141Z,5.30
2023-01-13T10:00:46.457Z,5.97
2023-01-13T10:03:47.752Z,5.40
2023-01-13T10:06:49.115Z,5.18
2023-01-13T10:09:50.408Z,6.00
2023-01-13T10:12:51.717Z,5.50
2023-01-13T10:15:53.109Z,5.10
2023-01-13T10:18:54.489Z,5.30
2023-01-13T10:21:55.777Z,5.47
2023-01-13T10:24:57.184Z,5.85
2023-01-13T10:27:58.492Z,5.90
2023-01-13T10:30:59.903Z,6.57
2023-01-13T10:34:01.256Z,8.15
2023-01-13T10:37:02.579Z,7.63
2023-01-13T10:40:05.132Z,9.82
2023-01-13T10:43:06.548Z,6.95
2023-01-13T10:46:08.037Z,6.87
2023-01-13T10:49:09.411Z,6.53
2023-01-13T10:52:10.741Z,7.15
2023-01-13T10:55:12.078Z,6.40
2023-01-13T10:58:13.474Z,6.10
2023-01-13T11:01:14.841Z,6.67
2023-01-13T11:04:16.192Z,5.93
2023-01-13T11:07:17.495Z,11.82
2023-01-13T11:10:18.813Z,9.43
2023-01-13T11:13:20.123Z,7.38
2023-01-13T11:16:21.467Z,6.90
2023-01-13T11:19:22.814Z,6.03
2023-01-13T11:22:24.156Z,6.35
2023-01-13T11:25:25.454Z,7.03
2023-01-13T11:28:26.838Z,6.43
2023-01-13T11:31:28.276Z,5.80
2023-01-13T11:34:29.628Z,6.75
2023-01-13T11:37:30.948Z,6.95
2023-01-13T11:40:32.324Z,6.68
2023-01-13T11:43:33.630Z,7.15
2023-01-13T11:46:34.990Z,6.23
2023-01-13T11:49:36.324Z,6.60
2023-01-13T11:52:37.633Z,11.75
2023-01-13T11:55:38.947Z,13.60
2023-01-13T11:58:50.292Z,10.25
2023-01-13T12:01:52.608Z,9.37
2023-01-13T12:04:53.951Z,8.75
2023-01-13T12:07:55.250Z,8.45
2023-01-13T12:10:56.568Z,8.23
2023-01-13T12:13:57.921Z,6.72
2023-01-13T12:17:01.196Z,7.77
2023-01-13T12:20:02.687Z,7.53
2023-01-13T12:23:04.005Z,8.65
2023-01-13T12:26:05.282Z,6.85
2023-01-13T12:29:06.690Z,10.82
2023-01-13T12:32:08.001Z,12.63
2023-01-13T12:35:09.341Z,11.00
2023-01-13T12:38:10.658Z,8.98
2023-01-13T12:41:11.952Z,8.52
2023-01-13T12:44:13.329Z,7.63
2023-01-13T12:47:14.637Z,9.43
2023-01-13T12:50:16.050Z,7.80
2023-01-13T12:53:17.353Z,7.45
2023-01-13T12:56:18.674Z,7.57
2023-01-13T12:59:20.003Z,7.50
2023-01-13T13:02:21.405Z,7.67
2023-01-13T13:05:22.768Z,9.13
2023-01-13T13:08:24.071Z,8.90
2023-01-13T13:11:25.396Z,8.38
2023-01-13T13:14:26.802Z,9.52
2023-01-13T13:17:28.119Z,8.73
2023-01-13T13:20:29.431Z,8.75
2023-01-13T13:23:30.915Z,9.18
2023-01-13T13:26:32.236Z,8.95
2023-01-13T13:29:33.693Z,8.07
2023-01-13T13:32:35.034Z,8.07
2023-01-13T13:35:36.326Z,8.82
2023-01-13T13:38:37.639Z,8.23
2023-01-13T13:41:39.035Z,9.25
2023-01-13T13:44:40.361Z,8.70
2023-01-13T13:47:41.697Z,8.27
2023-01-13T13:50:42.993Z,6.95
2023-01-13T13:53:44.332Z,7.57
2023-01-13T13:56:45.917Z,7.80
2023-01-13T13:59:47.299Z,7.72
2023-01-13T14:02:48.716Z,7.13
2023-01-13T14:05:50.089Z,8.75
2023-01-13T14:08:51.466Z,6.47
2023-01-13T14:11:52.762Z,7.65
2023-01-13T14:14:54.055Z,7.13
2023-01-13T14:17:55.455Z,7.30
2023-01-13T14:20:56.856Z,6.90
2023-01-13T14:23:58.202Z,7.80
2023-01-13T14:26:59.499Z,6.40
2023-01-13T14:30:00.806Z,6.40
2023-01-13T14:33:02.110Z,6.83
2023-01-13T14:36:03.399Z,5.82
2023-01-13T14:39:04.701Z,7.07
2023-01-13T14:42:06.009Z,6.40
2023-01-13T14:45:07.318Z,6.70
2023-01-13T14:48:08.732Z,6.33
2023-01-13T14:51:10.079Z,5.70
2023-01-13T14:54:11.409Z,6.22
2023-01-13T14:57:12.693Z,6.35
2023-01-13T15:00:14.208Z,9.10
2023-01-13T15:03:15.568Z,8.50
2023-01-13T15:06:16.884Z,8.30
2023-01-13T15:09:18.188Z,8.10
2023-01-13T15:12:19.511Z,8.77
2023-01-13T15:15:20.846Z,11.52
2023-01-13T15:18:22.146Z,10.90
2023-01-13T15:21:23.453Z,11.02
2023-01-13T15:24:24.786Z,10.60
2023-01-13T15:27:26.081Z,9.02
2023-01-13T15:30:27.444Z,10.00
2023-01-13T15:33:28.763Z,10.10
2023-01-13T15:36:30.094Z,10.23
2023-01-13T15:39:31.510Z,8.35
2023-01-13T15:42:32.800Z,7.75
2023-01-13T15:45:34.108Z,7.18
2023-01-13T15:48:35.790Z,8.60
2023-01-13T15:51:37.159Z,8.52
2023-01-13T15:54:38.461Z,7.68
2023-01-13T15:57:39.773Z,8.20
2023-01-13T16:00:41.114Z,9.15
2023-01-13T16:03:42.437Z,10.10
2023-01-13T16:06:43.734Z,9.63
2023-01-13T16:09:45.064Z,9.70
2023-01-13T16:12:46.362Z,9.27
2023-01-13T16:15:47.679Z,11.60
2023-01-13T16:18:48.990Z,11.07
2023-01-13T16:21:50.343Z,10.30
2023-01-13T16:24:51.688Z,10.50
2023-01-13T16:27:53.157Z,11.25
2023-01-13T16:30:54.486Z,10.40
2023-01-13T16:33:56.079Z,10.00
2023-01-13T16:36:57.478Z,10.43
2023-01-13T16:39:58.912Z,13.20
2023-01-13T16:43:00.221Z,15.93
2023-01-13T16:46:01.545Z,14.88
2023-01-13T16:49:02.970Z,12.80
2023-01-13T16:52:04.283Z,12.82
2023-01-13T16:55:05.585Z,12.00
2023-01-13T16:58:06.989Z,11.13
2023-01-13T17:01:08.365Z,11.68
2023-01-13T17:04:09.781Z,11.57
2023-01-13T17:07:11.112Z,10.75
2023-01-13T17:10:12.537Z,10.40
2023-01-13T17:13:16.947Z,10.60
2023-01-13T17:16:18.760Z,10.65
2023-01-13T17:19:20.105Z,10.50
2023-01-13T17:22:21.571Z,10.52
2023-01-13T17:25:22.907Z,11.00
2023-01-13T17:28:24.236Z,9.35
2023-01-13T17:31:25.592Z,9.90
2023-01-13T17:34:26.982Z,10.27
2023-01-13T17:37:28.640Z,10.40
2023-01-13T17:40:30.011Z,10.18
2023-01-13T17:43:31.344Z,10.75
2023-01-13T17:46:32.647Z,9.98
2023-01-13T17:49:33.950Z,10.77
2023-01-13T17:52:35.267Z,10.65
2023-01-13T17:55:36.573Z,10.07
2023-01-13T17:58:37.927Z,10.18
2023-01-13T18:01:39.317Z,10.15
2023-01-13T18:04:40.660Z,10.67
2023-01-13T18:07:41.952Z,9.45
2023-01-13T18:10:43.269Z,10.48
2023-01-13T18:13:44.556Z,9.77
2023-01-13T18:16:46.269Z,9.82
2023-01-13T18:19:47.691Z,10.83
2023-01-13T18:22:49.116Z,9.80
2023-01-13T18:25:50.925Z,10.48
2023-01-13T18:28:52.683Z,11.05
2023-01-13T18:31:54.409Z,10.63
2023-01-13T18:35:05.065Z,10.00
2023-01-13T18:38:07.272Z,10.02
2023-01-13T18:41:08.638Z,11.23
2023-01-13T18:44:10.339Z,10.98
2023-01-13T18:47:12.159Z,9.85
2023-01-13T18:50:13.568Z,10.17
2023-01-13T18:53:15.569Z,10.50
2023-01-13T18:56:18.245Z,10.00
2023-01-13T18:59:19.996Z,9.95
2023-01-13T19:02:21.514Z,9.98
2023-01-13T19:05:23.175Z,10.67
2023-01-13T19:08:24.918Z,10.90
2023-01-13T19:11:26.544Z,10.73
2023-01-13T19:14:27.934Z,10.80
2023-01-13T19:17:29.617Z,10.38
2023-01-13T19:20:31.004Z,10.90
2023-01-13T19:23:32.431Z,10.55
2023-01-13T19:26:33.802Z,9.77
2023-01-13T19:29:35.398Z,10.07
2023-01-13T19:32:40.052Z,10.82
2023-01-13T19:35:42.274Z,9.57
2023-01-13T19:38:53.166Z,10.88
2023-01-13T19:41:54.862Z,9.88
2023-01-13T19:44:56.581Z,10.63
2023-01-13T19:47:58.346Z,10.30
2023-01-13T19:51:00.131Z,10.00
2023-01-13T19:54:01.795Z,10.43
2023-01-13T19:57:03.215Z,9.77
2023-01-13T20:00:04.905Z,9.93
2023-01-13T20:03:06.759Z,10.35
2023-01-13T20:06:08.806Z,10.03
2023-01-13T20:09:10.333Z,10.43
2023-01-13T20:12:11.641Z,9.88
2023-01-13T20:15:13.371Z,9.52
2023-01-13T20:18:15.479Z,9.98
2023-01-13T20:21:17.243Z,9.07
2023-01-13T20:24:18.789Z,9.73
2023-01-13T20:27:20.135Z,10.77
2023-01-13T20:30:21.818Z,9.32
2023-01-13T20:33:23.188Z,10.55
2023-01-13T20:36:24.876Z,9.60
2023-01-13T20:39:26.523Z,9.63
2023-01-13T20:42:27.977Z,10.60
2023-01-13T20:45:29.325Z,9.70
2023-01-13T20:48:31.671Z,10.70
2023-01-13T20:51:33.433Z,10.07
2023-01-13T20:54:34.839Z,10.07
2023-01-13T20:57:37.071Z,9.63
2023-01-13T21:00:38.478Z,10.07
2023-01-13T21:03:39.812Z,10.82
2023-01-13T21:06:42.519Z,9.80
2023-01-13T21:09:43.903Z,10.20
2023-01-13T21:12:45.388Z,9.07
2023-01-13T21:15:46.971Z,10.38
2023-01-13T21:18:48.344Z,10.00
2023-01-13T21:21:49.654Z,10.67
2023-01-13T21:24:50.971Z,9.65
2023-01-13T21:27:52.543Z,9.70
2023-01-13T21:30:53.854Z,10.57
2023-01-13T21:33:55.162Z,10.45
2023-01-13T21:36:56.535Z,9.80
2023-01-13T21:39:57.872Z,9.60
2023-01-13T21:42:59.181Z,10.43
2023-01-13T21:46:00.539Z,9.75
2023-01-13T21:49:01.882Z,10.00
2023-01-13T21:52:03.181Z,10.07
2023-01-13T21:55:04.500Z,10.23
2023-01-13T21:58:05.799Z,9.07
2023-01-13T22:01:07.185Z,10.30
2023-01-13T22:04:08.566Z,10.07
2023-01-13T22:07:09.872Z,9.60
2023-01-13T22:10:11.180Z,10.30
2023-01-13T22:13:12.475Z,10.57
2023-01-13T22:16:13.833Z,10.48
2023-01-13T22:19:15.154Z,10.05
2023-01-13T22:22:16.460Z,9.93
2023-01-13T22:25:17.742Z,9.90
2023-01-13T22:28:19.056Z,10.48
2023-01-13T22:31:20.354Z,9.88
2023-01-13T22:34:21.673Z,10.60
2023-01-13T22:37:23.054Z,9.57
2023-01-13T22:40:24.336Z,9.43
2023-01-13T22:43:25.638Z,9.82
2023-01-13T22:46:27.070Z,9.23
2023-01-13T22:49:28.379Z,9.10
2023-01-13T22:52:29.655Z,9.23
2023-01-13T22:55:30.968Z,9.88
2023-01-13T22:58:32.263Z,10.02
2023-01-13T23:01:33.566Z,9.38
2023-01-13T23:04:34.868Z,9.60
2023-01-13T23:07:36.252Z,9.60
2023-01-13T23:10:37.596Z,9.65
2023-01-13T23:13:38.889Z,9.90
2023-01-13T23:16:40.174Z,9.77
2023-01-13T23:19:41.514Z,9.25
2023-01-13T23:22:42.860Z,9.00
2023-01-13T23:25:44.189Z,8.98
2023-01-13T23:28:45.523Z,9.63
2023-01-13T23:31:46.829Z,9.15
2023-01-13T23:34:48.140Z,9.57
2023-01-13T23:37:49.433Z,9.00
2023-01-13T23:40:50.743Z,8.75
2023-01-13T23:43:52.084Z,8.68
2023-01-13T23:46:53.493Z,9.60
2023-01-13T23:49:54.820Z,9.65
2023-01-13T23:52:56.134Z,9.47
2023-01-13T23:55:57.420Z,8.43
2023-01-13T23:58:58.739Z,8.77
